createdAt,value
2022-09-02T00:00:14.180Z,22.21
2022-09-02T00:02:42.405Z,22.24
2022-09-02T00:05:10.689Z,22.23
2022-09-02T00:07:38.797Z,22.21
2022-09-02T00:10:07.393Z,22.21
2022-09-02T00:12:35.435Z,22.23
2022-09-02T00:15:05.704Z,22.23
2022-09-02T00:17:33.803Z,22.22
2022-09-02T00:20:01.917Z,22.21
2022-09-02T00:22:30.010Z,22.22
2022-09-02T00:24:58.031Z,22.17
2022-09-02T00:27:26.729Z,22.13
2022-09-02T00:29:54.803Z,22.19
2022-09-02T00:32:24.253Z,22.19
2022-09-02T00:34:52.356Z,22.19
2022-09-02T00:37:20.490Z,22.21
2022-09-02T00:39:48.572Z,22.19
2022-09-02T00:42:16.702Z,22.21
2022-09-02T00:44:44.747Z,22.18
2022-09-02T00:47:12.815Z,22.17
2022-09-02T00:49:45.341Z,22.16
2022-09-02T00:52:19.694Z,22.17
2022-09-02T00:54:51.393Z,22.18
2022-09-02T00:57:23.425Z,22.20
2022-09-02T01:00:02.484Z,22.19
2022-09-02T01:02:31.763Z,22.18
2022-09-02T01:05:04.038Z,22.18
2022-09-02T01:07:35.132Z,22.19
2022-09-02T01:10:05.787Z,22.19
2022-09-02T01:12:34.308Z,22.13
2022-09-02T01:15:03.161Z,22.19
2022-09-02T01:17:34.884Z,22.19
2022-09-02T01:20:12.240Z,22.19
2022-09-02T01:22:42.929Z,22.16
2022-09-02T01:25:15.213Z,22.12
2022-09-02T01:27:44.430Z,22.18
2022-09-02T01:30:15.798Z,22.18
2022-09-02T01:32:43.996Z,22.16
2022-09-02T01:35:12.633Z,22.18
2022-09-02T01:37:43.118Z,22.19
2022-09-02T01:40:24.810Z,22.15
2022-09-02T01:42:56.276Z,22.17
2022-09-02T01:45:24.490Z,22.17
2022-09-02T01:47:52.465Z,22.16
2022-09-02T01:50:21.051Z,22.17
2022-09-02T01:52:50.479Z,22.17
2022-09-02T01:55:18.578Z,22.18
2022-09-02T01:57:47.667Z,22.18
2022-09-02T02:00:16.838Z,22.17
2022-09-02T02:02:45.032Z,22.17
2022-09-02T02:05:14.259Z,22.17
2022-09-02T02:07:43.182Z,22.18
2022-09-02T02:10:14.235Z,22.17
2022-09-02T02:12:42.432Z,22.16
2022-09-02T02:15:13.180Z,22.18
2022-09-02T02:17:41.249Z,22.17
2022-09-02T02:20:11.537Z,22.17
2022-09-02T02:22:39.703Z,22.17
2022-09-02T02:25:09.081Z,22.18
2022-09-02T02:27:38.550Z,22.17
2022-09-02T02:30:08.011Z,22.18
2022-09-02T02:32:36.350Z,22.19
2022-09-02T02:35:04.883Z,22.18
2022-09-02T02:37:32.938Z,22.17
2022-09-02T02:40:01.001Z,22.18
2022-09-02T02:42:29.089Z,22.18
2022-09-02T02:44:58.750Z,22.20
2022-09-02T02:47:26.985Z,22.18
2022-09-02T02:49:55.114Z,22.20
2022-09-02T02:52:23.132Z,22.20
2022-09-02T02:54:51.116Z,22.21
2022-09-02T02:57:19.329Z,22.18
2022-09-02T02:59:47.448Z,22.19
2022-09-02T03:02:17.158Z,22.18
2022-09-02T03:04:45.246Z,22.17
2022-09-02T03:07:13.286Z,22.18
2022-09-02T03:09:43.198Z,22.17
2022-09-02T03:12:11.243Z,22.17
2022-09-02T03:14:39.251Z,22.16
2022-09-02T03:17:07.598Z,22.17
2022-09-02T03:19:37.043Z,22.17
2022-09-02T03:22:05.578Z,22.16
2022-09-02T03:24:33.783Z,22.15
2022-09-02T03:27:01.833Z,22.16
2022-09-02T03:29:30.067Z,22.17
2022-09-02T03:31:58.345Z,22.17
2022-09-02T03:34:26.662Z,22.17
2022-09-02T03:36:58.587Z,22.17
2022-09-02T03:39:26.703Z,22.17
2022-09-02T03:41:54.798Z,22.14
2022-09-02T03:44:22.958Z,22.17
2022-09-02T03:46:50.939Z,22.17
2022-09-02T03:49:19.157Z,22.17
2022-09-02T03:51:47.278Z,22.17
2022-09-02T03:54:16.669Z,22.16
2022-09-02T03:56:44.813Z,22.17
2022-09-02T03:59:13.690Z,22.16
2022-09-02T04:01:41.753Z,22.16
2022-09-02T04:04:10.494Z,22.16
2022-09-02T04:06:38.813Z,22.16
2022-09-02T04:09:07.062Z,22.16
2022-09-02T04:11:37.267Z,22.17
2022-09-02T04:14:05.368Z,22.17
2022-09-02T04:16:34.858Z,22.16
2022-09-02T04:19:04.311Z,22.09
2022-09-02T04:21:34.867Z,22.17
2022-09-02T04:24:03.032Z,22.17
2022-09-02T04:26:31.362Z,22.17
2022-09-02T04:29:00.830Z,22.17
2022-09-02T04:31:32.058Z,22.18
2022-09-02T04:34:00.795Z,22.19
2022-09-02T04:36:30.825Z,22.18
2022-09-02T04:39:00.398Z,22.19
2022-09-02T04:41:31.086Z,22.19
2022-09-02T04:44:01.134Z,22.19
2022-09-02T04:46:34.464Z,22.18
2022-09-02T04:49:03.446Z,22.20
2022-09-02T04:51:31.568Z,22.17
2022-09-02T04:53:59.990Z,22.17
2022-09-02T04:56:31.244Z,22.17
2022-09-02T04:59:01.277Z,22.17
2022-09-02T05:01:32.489Z,22.13
2022-09-02T05:04:02.936Z,22.13
2022-09-02T05:06:32.048Z,22.22
2022-09-02T05:09:02.070Z,22.26
2022-09-02T05:11:33.091Z,22.28
2022-09-02T05:14:06.722Z,22.29
2022-09-02T05:16:37.823Z,22.29
2022-09-02T05:19:09.729Z,22.17
2022-09-02T05:21:41.662Z,22.31
2022-09-02T05:24:10.045Z,22.34
2022-09-02T05:26:38.087Z,22.35
2022-09-02T05:29:08.424Z,22.35
2022-09-02T05:31:36.734Z,22.37
2022-09-02T05:34:05.159Z,22.38
2022-09-02T05:36:33.578Z,22.36
2022-09-02T05:39:02.587Z,22.40
2022-09-02T05:41:30.660Z,22.41
2022-09-02T05:44:01.582Z,22.41
2022-09-02T05:46:34.089Z,22.43
2022-09-02T05:49:09.189Z,22.19
2022-09-02T05:51:43.292Z,22.41
2022-09-02T05:54:13.360Z,22.44
2022-09-02T05:56:45.029Z,22.45
2022-09-02T05:59:14.041Z,22.43
2022-09-02T06:01:43.669Z,22.46
2022-09-02T06:04:11.733Z,22.45
2022-09-02T06:06:40.005Z,22.45
2022-09-02T06:09:10.034Z,22.45
2022-09-02T06:11:40.349Z,22.44
2022-09-02T06:14:09.052Z,22.45
2022-09-02T06:16:37.561Z,22.46
2022-09-02T06:19:07.401Z,22.45
2022-09-02T06:21:36.604Z,22.45
2022-09-02T06:24:06.269Z,22.46
2022-09-02T06:26:34.883Z,22.28
2022-09-02T06:29:03.409Z,22.47
2022-09-02T06:31:34.432Z,22.48
2022-09-02T06:34:04.783Z,22.47
2022-09-02T06:36:34.186Z,22.49
2022-09-02T06:39:02.858Z,22.47
2022-09-02T06:41:33.815Z,22.48
2022-09-02T06:44:07.103Z,22.48
2022-09-02T06:46:38.082Z,22.47
2022-09-02T06:49:07.892Z,22.47
2022-09-02T06:51:39.841Z,22.48
2022-09-02T06:54:10.374Z,22.49
2022-09-02T06:56:46.034Z,22.48
2022-09-02T06:59:17.825Z,22.48
2022-09-02T07:01:46.456Z,22.47
2022-09-02T07:04:32.650Z,22.47
2022-09-02T07:07:02.114Z,22.47
2022-09-02T07:09:31.461Z,22.47
2022-09-02T07:12:04.195Z,22.47
2022-09-02T07:14:33.502Z,22.47
2022-09-02T07:17:01.583Z,22.48
2022-09-02T07:19:29.730Z,22.48
2022-09-02T07:21:57.745Z,22.48
2022-09-02T07:24:27.251Z,22.50
2022-09-02T07:26:55.903Z,22.50
2022-09-02T07:29:24.264Z,22.49
2022-09-02T07:31:52.474Z,22.50
2022-09-02T07:34:21.659Z,22.51
2022-09-02T07:36:49.879Z,22.44
2022-09-02T07:39:19.773Z,22.27
2022-09-02T07:41:52.329Z,22.49
2022-09-02T07:44:21.879Z,22.46
2022-09-02T07:46:50.156Z,22.48
2022-09-02T07:49:23.934Z,22.45
2022-09-02T07:51:52.617Z,22.47
2022-09-02T07:54:23.851Z,22.38
2022-09-02T07:56:53.826Z,22.46
2022-09-02T07:59:22.541Z,22.48
2022-09-02T08:01:51.590Z,22.45
2022-09-02T08:04:20.417Z,22.42
2022-09-02T08:06:48.583Z,22.44
2022-09-02T08:09:16.752Z,22.44
2022-09-02T08:11:47.756Z,22.42
2022-09-02T08:14:20.383Z,22.44
2022-09-02T08:16:50.007Z,22.46
2022-09-02T08:19:18.305Z,22.46
2022-09-02T08:21:46.488Z,22.47
2022-09-02T08:24:14.576Z,22.48
2022-09-02T08:26:42.760Z,22.46
2022-09-02T08:29:11.274Z,22.46
2022-09-02T08:31:41.196Z,22.48
2022-09-02T08:34:09.671Z,22.50
2022-09-02T08:36:39.171Z,22.48
2022-09-02T08:39:12.677Z,22.49
2022-09-02T08:41:48.950Z,22.49
2022-09-02T08:44:25.547Z,22.50
2022-09-02T08:47:01.601Z,22.49
2022-09-02T08:49:34.873Z,22.50
2022-09-02T08:52:06.264Z,22.53
2022-09-02T08:54:42.026Z,22.51
2022-09-02T08:57:11.550Z,22.50
2022-09-02T09:02:22.846Z,22.47
2022-09-02T09:05:14.748Z,22.50
2022-09-02T09:07:59.660Z,22.49
2022-09-02T09:10:38.910Z,22.50
2022-09-02T09:13:23.177Z,22.51
2022-09-02T09:15:57.456Z,22.52
2022-09-02T09:18:38.261Z,22.52
2022-09-02T09:21:07.705Z,22.54
2022-09-02T09:23:41.482Z,22.54
2022-09-02T09:26:11.881Z,22.56
2022-09-02T09:28:42.486Z,22.57
2022-09-02T09:31:15.885Z,22.55
2022-09-02T09:33:58.869Z,22.54
2022-09-02T09:37:00.113Z,22.50
2022-09-02T09:39:30.247Z,22.46
2022-09-02T09:42:01.796Z,22.48
2022-09-02T09:44:42.234Z,22.49
2022-09-02T09:47:18.098Z,22.48
2022-09-02T09:49:49.058Z,22.44
2022-09-02T09:52:27.953Z,22.46
2022-09-02T09:55:25.397Z,22.46
2022-09-02T09:57:54.854Z,22.44
2022-09-02T10:00:29.467Z,22.45
2022-09-02T10:03:01.260Z,22.44
2022-09-02T10:05:34.344Z,22.44
2022-09-02T10:08:04.122Z,22.42
2022-09-02T10:10:38.876Z,22.43
2022-09-02T10:13:23.171Z,22.44
2022-09-02T10:16:06.816Z,22.43
2022-09-02T10:18:41.593Z,22.43
2022-09-02T10:21:25.604Z,22.42
2022-09-02T10:24:04.195Z,22.42
2022-09-02T10:26:39.030Z,22.41
2022-09-02T10:29:38.124Z,22.40
2022-09-02T10:32:23.626Z,22.40
2022-09-02T10:35:01.676Z,22.39
2022-09-02T10:37:44.009Z,22.37
2022-09-02T10:40:16.546Z,22.37
2022-09-02T10:43:00.119Z,22.38
2022-09-02T10:45:35.958Z,22.38
2022-09-02T10:48:21.483Z,22.40
2022-09-02T10:50:55.086Z,22.41
2022-09-02T10:53:38.136Z,22.45
2022-09-02T10:56:09.574Z,22.46
2022-09-02T10:58:45.232Z,22.44
2022-09-02T11:01:19.452Z,22.46
2022-09-02T11:04:00.207Z,22.47
2022-09-02T11:06:51.792Z,22.47
2022-09-02T11:09:30.764Z,22.45
2022-09-02T11:12:03.622Z,22.47
2022-09-02T11:14:36.729Z,22.49
2022-09-02T11:17:13.141Z,22.51
2022-09-02T11:19:45.429Z,22.53
2022-09-02T11:22:27.271Z,22.53
2022-09-02T11:25:01.906Z,22.54
2022-09-02T11:27:43.294Z,22.54
2022-09-02T11:30:16.342Z,22.56
2022-09-02T11:32:51.037Z,22.56
2022-09-02T11:35:27.583Z,22.56
2022-09-02T11:38:00.944Z,22.55
2022-09-02T11:40:37.437Z,22.56
2022-09-02T11:43:30.425Z,22.56
2022-09-02T11:46:32.325Z,22.57
2022-09-02T11:49:41.072Z,22.57
2022-09-02T11:55:07.770Z,22.57
2022-09-02T11:57:41.584Z,22.57
2022-09-02T12:00:34.004Z,22.58
2022-09-02T12:03:38.877Z,22.54
2022-09-02T12:06:10.854Z,22.51
2022-09-02T12:09:04.132Z,22.52
2022-09-02T12:11:41.715Z,22.54
2022-09-02T12:14:33.090Z,22.55
2022-09-02T12:17:03.920Z,22.53
2022-09-02T12:19:43.974Z,22.52
2022-09-02T12:22:42.582Z,22.56
2022-09-02T12:25:38.336Z,22.57
2022-09-02T12:28:27.757Z,22.54
2022-09-02T12:31:22.571Z,22.56
2022-09-02T12:33:51.792Z,22.56
2022-09-02T12:36:52.265Z,22.57
2022-09-02T12:39:55.624Z,22.57
2022-09-02T12:42:31.154Z,22.57
2022-09-02T12:45:07.799Z,22.57
2022-09-02T12:47:50.929Z,22.57
2022-09-02T12:50:26.440Z,22.50
2022-09-02T12:53:22.284Z,22.60
2022-09-02T12:55:57.162Z,22.60
2022-09-02T12:58:26.138Z,22.60
2022-09-02T13:01:06.737Z,22.60
2022-09-02T13:04:11.929Z,22.62
2022-09-02T13:06:58.231Z,22.62
2022-09-02T13:09:48.192Z,22.59
2022-09-02T13:12:57.253Z,22.61
2022-09-02T13:15:36.859Z,22.60
2022-09-02T13:18:41.958Z,22.61
2022-09-02T13:21:30.284Z,22.61
2022-09-02T13:24:30.932Z,22.62
2022-09-02T13:27:41.327Z,22.63
2022-09-02T13:30:16.378Z,22.62
2022-09-02T13:32:44.993Z,22.61
2022-09-02T13:35:23.672Z,22.61
2022-09-02T13:38:00.408Z,22.62
2022-09-02T13:40:33.605Z,22.62
2022-09-02T13:43:03.126Z,22.63
2022-09-02T13:45:34.468Z,22.62
2022-09-02T13:48:08.119Z,22.64
2022-09-02T13:50:38.478Z,22.63
2022-09-02T13:53:59.037Z,22.62
2022-09-02T13:55:59.769Z,22.61
2022-09-02T13:58:36.856Z,22.61
2022-09-02T14:01:26.280Z,22.62
2022-09-02T14:03:56.395Z,22.60
2022-09-02T14:06:27.922Z,22.63
2022-09-02T14:09:01.378Z,22.63
2022-09-02T14:11:32.032Z,22.63
2022-09-02T14:14:00.192Z,22.62
2022-09-02T14:16:33.580Z,22.59
2022-09-02T14:19:10.507Z,22.63
2022-09-02T14:21:46.335Z,22.65
2022-09-02T14:24:21.237Z,22.66
2022-09-02T14:26:52.538Z,22.66
2022-09-02T14:29:21.720Z,22.66
2022-09-02T14:32:07.456Z,22.55
2022-09-02T14:34:37.701Z,22.64
2022-09-02T14:37:22.296Z,22.63
2022-09-02T14:40:11.907Z,22.65
2022-09-02T14:42:48.706Z,22.61
2022-09-02T14:45:26.948Z,22.61
2022-09-02T14:47:55.479Z,22.61
2022-09-02T14:50:29.303Z,22.62
2022-09-02T14:53:03.897Z,22.17
2022-09-02T14:55:50.272Z,22.72
2022-09-02T14:58:21.106Z,22.40
2022-09-02T15:00:56.858Z,22.62
2022-09-02T15:03:25.866Z,22.65
2022-09-02T15:05:53.959Z,22.72
2022-09-02T15:08:23.308Z,22.73
2022-09-02T15:11:01.822Z,22.74
2022-09-02T15:13:34.143Z,22.72
2022-09-02T15:16:03.529Z,22.70
2022-09-02T15:18:31.886Z,22.73
2022-09-02T15:21:00.118Z,22.44
2022-09-02T15:23:32.533Z,22.60
2022-09-02T15:26:04.320Z,22.75
2022-09-02T15:28:32.613Z,22.63
2022-09-02T15:31:01.525Z,22.72
2022-09-02T15:33:30.430Z,22.73
2022-09-02T15:36:09.681Z,22.24
2022-09-02T15:38:41.157Z,22.71
2022-09-02T15:41:19.234Z,22.54
2022-09-02T15:43:52.051Z,22.62
2022-09-02T15:46:27.429Z,22.67
2022-09-02T15:49:01.754Z,22.27
2022-09-02T15:51:30.824Z,22.71
2022-09-02T15:54:00.395Z,22.63
2022-09-02T15:56:31.929Z,22.61
2022-09-02T15:59:01.949Z,22.70
2022-09-02T16:01:32.706Z,22.70
2022-09-02T16:04:02.528Z,22.60
2022-09-02T16:06:31.769Z,22.69
2022-09-02T16:09:00.542Z,22.35
2022-09-02T16:11:30.643Z,22.70
2022-09-02T16:13:59.294Z,22.69
2022-09-02T16:16:27.765Z,22.69
2022-09-02T16:18:56.398Z,22.69
2022-09-02T16:21:24.994Z,22.69
2022-09-02T16:23:53.590Z,22.68
2022-09-02T16:26:27.421Z,22.67
2022-09-02T16:28:59.023Z,22.51
2022-09-02T16:31:29.722Z,22.65
2022-09-02T16:33:59.898Z,22.64
2022-09-02T16:36:33.364Z,22.15
2022-09-02T16:39:02.193Z,22.34
2022-09-02T16:41:34.715Z,22.62
2022-09-02T16:44:06.769Z,22.59
2022-09-02T16:46:36.770Z,22.62
2022-09-02T16:49:08.117Z,22.63
2022-09-02T16:51:38.440Z,22.61
2022-09-02T16:54:08.503Z,22.61
2022-09-02T16:56:38.151Z,22.41
2022-09-02T16:59:09.243Z,22.61
2022-09-02T17:01:38.541Z,22.59
2022-09-02T17:04:08.598Z,22.60
2022-09-02T17:06:41.989Z,22.52
2022-09-02T17:09:10.986Z,22.57
2022-09-02T17:11:43.697Z,22.58
2022-09-02T17:14:16.126Z,22.56
2022-09-02T17:16:47.063Z,22.57
2022-09-02T17:19:21.916Z,22.59
2022-09-02T17:21:51.980Z,22.60
2022-09-02T17:24:21.754Z,22.58
2022-09-02T17:26:51.303Z,22.51
2022-09-02T17:32:11.204Z,22.60
2022-09-02T17:34:39.275Z,22.59
2022-09-02T17:37:09.217Z,22.59
2022-09-02T17:39:37.300Z,22.58
2022-09-02T17:42:06.725Z,22.38
2022-09-02T17:44:38.837Z,22.58
2022-09-02T17:47:08.861Z,22.60
2022-09-02T17:49:38.224Z,22.63
2022-09-02T17:52:08.254Z,22.50
2022-09-02T17:54:37.276Z,22.70
2022-09-02T17:57:11.630Z,22.73
2022-09-02T18:00:11.531Z,22.73
2022-09-02T18:03:14.641Z,22.70
2022-09-02T18:05:59.123Z,22.67
2022-09-02T18:08:36.170Z,22.64
2022-09-02T18:11:07.310Z,22.65
2022-09-02T18:13:45.134Z,22.63
2022-09-02T18:16:36.912Z,22.65
2022-09-02T18:19:16.367Z,22.61
2022-09-02T18:21:54.587Z,22.61
2022-09-02T18:24:36.509Z,22.59
2022-09-02T18:27:17.904Z,22.56
2022-09-02T18:29:59.803Z,22.54
2022-09-02T18:32:44.550Z,22.37
2022-09-02T18:35:22.562Z,22.40
2022-09-02T18:38:02.007Z,22.56
2022-09-02T18:40:44.428Z,22.55
2022-09-02T18:43:20.835Z,22.55
2022-09-02T18:45:50.860Z,22.56
2022-09-02T18:48:25.679Z,22.58
2022-09-02T18:50:59.446Z,22.52
2022-09-02T18:53:31.814Z,22.49
2022-09-02T18:56:07.113Z,22.58
2022-09-02T18:58:43.814Z,22.57
2022-09-02T19:01:18.198Z,22.47
2022-09-02T19:03:47.942Z,22.48
2022-09-02T19:06:19.994Z,22.50
2022-09-02T19:08:50.299Z,22.57
2022-09-02T19:11:19.466Z,22.58
2022-09-02T19:13:50.697Z,22.56
2022-09-02T19:16:22.275Z,22.40
2022-09-02T19:18:54.159Z,22.55
2022-09-02T19:21:29.991Z,22.51
2022-09-02T19:23:58.320Z,22.55
2022-09-02T19:26:26.681Z,22.55
2022-09-02T19:28:56.381Z,22.56
2022-09-02T19:31:29.631Z,22.55
2022-09-02T19:34:03.554Z,22.55
2022-09-02T19:36:34.352Z,22.51
2022-09-02T19:39:02.419Z,22.55
2022-09-02T19:41:30.692Z,22.51
2022-09-02T19:44:00.370Z,22.52
2022-09-02T19:47:11.857Z,22.51
2022-09-02T19:49:18.194Z,22.52
2022-09-02T19:51:47.272Z,22.51
2022-09-02T19:54:18.613Z,22.53
2022-09-02T19:56:47.403Z,22.53
2022-09-02T19:59:15.663Z,22.52
2022-09-02T20:01:43.840Z,22.53
2022-09-02T20:04:13.090Z,22.52
2022-09-02T20:06:42.941Z,22.53
2022-09-02T20:09:11.106Z,22.52
2022-09-02T20:11:41.298Z,22.52
2022-09-02T20:14:09.633Z,22.52
2022-09-02T20:16:37.947Z,22.51
2022-09-02T20:19:06.787Z,22.51
2022-09-02T20:21:43.441Z,22.51
2022-09-02T20:24:16.008Z,22.09
2022-09-02T20:26:59.235Z,22.51
2022-09-02T20:29:40.438Z,22.50
2022-09-02T20:32:19.087Z,22.50
2022-09-02T20:34:59.931Z,22.50
2022-09-02T20:37:41.318Z,22.49
2022-09-02T20:40:27.349Z,22.49
2022-09-02T20:43:27.557Z,22.48
2022-09-02T20:45:59.521Z,22.47
2022-09-02T20:48:44.032Z,22.48
2022-09-02T20:51:21.125Z,22.48
2022-09-02T20:54:05.272Z,22.48
2022-09-02T20:56:42.952Z,22.47
2022-09-02T20:59:21.785Z,22.47
2022-09-02T21:01:51.530Z,22.47
2022-09-02T21:04:34.082Z,22.47
2022-09-02T21:07:06.488Z,22.47
2022-09-02T21:09:42.390Z,22.19
2022-09-02T21:12:21.737Z,22.47
2022-09-02T21:14:56.039Z,22.35
2022-09-02T21:17:34.925Z,22.47
2022-09-02T21:20:11.901Z,22.47
2022-09-02T21:22:43.437Z,22.46
2022-09-02T21:25:17.434Z,22.47
2022-09-02T21:27:52.626Z,22.30
2022-09-02T21:30:22.984Z,22.47
2022-09-02T21:32:53.673Z,22.47
2022-09-02T21:35:24.830Z,22.46
2022-09-02T21:37:59.752Z,22.46
2022-09-02T21:40:41.238Z,22.46
2022-09-02T21:43:27.550Z,22.47
2022-09-02T21:46:05.978Z,22.46
2022-09-02T21:48:43.438Z,22.47
2022-09-02T21:51:23.330Z,22.46
2022-09-02T21:54:02.130Z,22.36
2022-09-02T21:56:48.455Z,22.45
2022-09-02T21:59:33.422Z,22.41
2022-09-02T22:02:08.349Z,22.45
2022-09-02T22:04:50.274Z,22.44
2022-09-02T22:07:22.525Z,22.46
2022-09-02T22:10:02.102Z,22.45
2022-09-02T22:12:35.190Z,22.44
2022-09-02T22:15:12.282Z,22.44
2022-09-02T22:17:45.867Z,22.43
2022-09-02T22:20:18.045Z,22.42
2022-09-02T22:22:53.356Z,22.43
2022-09-02T22:25:23.456Z,22.45
2022-09-02T22:27:58.483Z,22.42
2022-09-02T22:30:29.150Z,22.45
2022-09-02T22:33:07.324Z,22.46
2022-09-02T22:35:41.548Z,22.44
2022-09-02T22:38:16.823Z,22.44
2022-09-02T22:40:50.873Z,22.44
2022-09-02T22:43:25.454Z,22.47
2022-09-02T22:46:18.983Z,22.40
2022-09-02T22:49:10.114Z,22.47
2022-09-02T22:52:03.021Z,22.29
2022-09-02T22:54:32.073Z,22.42
2022-09-02T22:57:07.972Z,22.46
2022-09-02T22:59:49.058Z,22.45
2022-09-02T23:02:23.524Z,22.44
2022-09-02T23:05:05.234Z,22.44
2022-09-02T23:07:33.711Z,22.39
2022-09-02T23:10:03.173Z,22.44
2022-09-02T23:12:44.056Z,22.38
2022-09-02T23:15:23.950Z,22.44
2022-09-02T23:18:01.643Z,22.43
2022-09-02T23:20:39.710Z,22.44
2022-09-02T23:23:37.930Z,22.42
2022-09-02T23:26:15.533Z,22.43
2022-09-02T23:29:03.625Z,22.42
2022-09-02T23:31:42.464Z,22.41
2022-09-02T23:34:31.032Z,22.42
2022-09-02T23:37:09.793Z,22.42
2022-09-02T23:39:57.871Z,22.39
2022-09-02T23:42:26.490Z,22.42
2022-09-02T23:45:17.775Z,22.42
2022-09-02T23:47:55.109Z,22.41
2022-09-02T23:50:33.550Z,22.41
2022-09-02T23:53:10.294Z,22.41
2022-09-02T23:55:48.783Z,22.41
2022-09-02T23:58:40.153Z,22.43
